Time;durP1;ratioP1;P1;durP2;ratioP2;P2;SDS_P1;SDS_P2;PMS_P1;PMS_P2;Temp;Humidity;BMP_temperature;BMP_pressure;BME280_temperature;BME280_humidity;BME280_pressure;Samples;Min_cycle;Max_cycle;Signal;HPM_P1;HPM_P2
2023/07/02 00:02:13;;;;;;;9.02;3.72;;;;;;;;;;5036275;28;20026;-68
2023/07/02 00:04:38;;;;;;;17.40;4.38;;;;;;;;;;5035189;28;20032;-69
2023/07/02 00:07:04;;;;;;;12.13;4.18;;;;;;;;;;5036883;28;20025;-68
2023/07/02 00:09:30;;;;;;;11.60;4.07;;;;;;;;;;5037000;28;20022;-69
2023/07/02 00:11:55;;;;;;;16.58;4.30;;;;;;;;;;5035906;28;20025;-69
2023/07/02 00:14:21;;;;;;;24.05;4.93;;;;;;;;;;5035268;28;20033;-69
2023/07/02 00:16:46;;;;;;;12.38;5.65;;;;;;;;;;5035847;28;20372;-69
2023/07/02 00:19:13;;;;;;;13.50;4.05;;;;;;;;;;5035681;28;20116;-69
2023/07/02 00:21:40;;;;;;;16.55;4.72;;;;;;;;;;5033799;28;20025;-69
2023/07/02 00:24:05;;;;;;;14.73;3.95;;;;;;;;;;5034953;28;20030;-69
2023/07/02 00:26:31;;;;;;;28.00;5.00;;;;;;;;;;5033026;28;20051;-69
2023/07/02 00:28:57;;;;;;;20.20;4.40;;;;;;;;;;5034469;28;20033;-69
2023/07/02 00:31:22;;;;;;;19.02;5.75;;;;;;;;;;5035327;28;20113;-69
2023/07/02 00:33:48;;;;;;;22.83;5.22;;;;;;;;;;5034303;28;20022;-69
2023/07/02 00:36:16;;;;;;;22.30;5.53;;;;;;;;;;5035548;28;20033;-69
2023/07/02 00:38:42;;;;;;;21.10;5.90;;;;;;;;;;5033978;28;20466;-69
2023/07/02 00:41:09;;;;;;;20.10;4.55;;;;;;;;;;5035172;28;20100;-69
2023/07/02 00:43:35;;;;;;;17.55;4.68;;;;;;;;;;5034018;28;20477;-69
2023/07/02 00:46:00;;;;;;;21.40;4.80;;;;;;;;;;5035607;28;20029;-69
2023/07/02 00:48:25;;;;;;;13.98;5.25;;;;;;;;;;5033920;28;20055;-69
2023/07/02 00:50:51;;;;;;;24.35;6.10;;;;;;;;;;5034414;28;20021;-69
2023/07/02 00:53:16;;;;;;;17.02;4.93;;;;;;;;;;5034302;28;20429;-69
2023/07/02 00:55:42;;;;;;;12.45;3.90;;;;;;;;;;5036130;28;20032;-69
2023/07/02 00:58:08;;;;;;;16.10;4.53;;;;;;;;;;5034812;28;20020;-69
2023/07/02 01:00:33;;;;;;;16.15;6.53;;;;;;;;;;5034074;28;20406;-69
2023/07/02 01:02:59;;;;;;;16.05;4.68;;;;;;;;;;5035369;28;20030;-69
2023/07/02 01:05:35;;;;;;;15.40;3.92;;;;;;;;;;5035730;28;20018;-69
2023/07/02 01:08:06;;;;;;;17.65;5.13;;;;;;;;;;5030808;28;20052;-69
2023/07/02 01:10:32;;;;;;;17.60;5.55;;;;;;;;;;5034279;28;20026;-69
2023/07/02 01:13:06;;;;;;;15.32;4.53;;;;;;;;;;5034201;28;20026;-69
2023/07/02 01:15:31;;;;;;;24.00;7.22;;;;;;;;;;5040096;28;20028;-69
2023/07/02 01:17:57;;;;;;;18.13;4.63;;;;;;;;;;5033744;28;20021;-69
2023/07/02 01:20:23;;;;;;;20.42;4.40;;;;;;;;;;5035233;28;20030;-69
2023/07/02 01:22:51;;;;;;;14.40;4.60;;;;;;;;;;5035453;28;20053;-69
2023/07/02 01:25:17;;;;;;;13.85;4.88;;;;;;;;;;5034496;28;20029;-68
2023/07/02 01:27:42;;;;;;;16.90;4.60;;;;;;;;;;5033780;28;20032;-69
2023/07/02 01:30:09;;;;;;;14.90;5.13;;;;;;;;;;5034331;28;20395;-68
2023/07/02 01:32:34;;;;;;;20.10;5.32;;;;;;;;;;5033352;28;20443;-68
2023/07/02 01:35:00;;;;;;;19.92;5.45;;;;;;;;;;5034480;28;20039;-69
2023/07/02 01:37:26;;;;;;;18.42;4.88;;;;;;;;;;5034916;28;20025;-68
2023/07/02 01:39:51;;;;;;;15.48;5.03;;;;;;;;;;5034807;28;20044;-68
2023/07/02 01:42:18;;;;;;;20.75;5.57;;;;;;;;;;5034864;28;20028;-68
2023/07/02 01:44:45;;;;;;;23.80;6.57;;;;;;;;;;5033970;28;20454;-68
2023/07/02 01:47:10;;;;;;;12.45;4.68;;;;;;;;;;5032909;28;20025;-68
2023/07/02 01:49:37;;;;;;;16.30;5.20;;;;;;;;;;5034283;28;20398;-68
2023/07/02 01:52:03;;;;;;;17.23;4.88;;;;;;;;;;4997753;28;20026;-68
2023/07/02 01:54:29;;;;;;;20.98;4.85;;;;;;;;;;5016601;28;20030;-68
2023/07/02 01:56:55;;;;;;;17.13;5.03;;;;;;;;;;5033431;28;20021;-68
2023/07/02 01:59:20;;;;;;;15.20;5.15;;;;;;;;;;5033062;28;20037;-68
2023/07/02 02:01:46;;;;;;;17.50;5.40;;;;;;;;;;5029235;28;20030;-68
2023/07/02 02:04:11;;;;;;;16.88;4.15;;;;;;;;;;5014803;28;20087;-68
2023/07/02 02:06:37;;;;;;;14.82;5.18;;;;;;;;;;5021070;28;20479;-68
2023/07/02 02:09:04;;;;;;;12.18;4.88;;;;;;;;;;5034709;28;20083;-68
2023/07/02 02:11:33;;;;;;;17.60;4.40;;;;;;;;;;5032638;28;20028;-67
2023/07/02 02:13:58;;;;;;;15.75;4.38;;;;;;;;;;5032918;28;20018;-68
2023/07/02 02:16:24;;;;;;;17.75;4.15;;;;;;;;;;5033748;28;20528;-68
2023/07/02 02:18:53;;;;;;;17.13;4.50;;;;;;;;;;5050044;28;20398;-68
2023/07/02 02:21:19;;;;;;;16.38;4.38;;;;;;;;;;5033438;28;20056;-68
2023/07/02 02:23:44;;;;;;;19.23;5.80;;;;;;;;;;5033906;28;20105;-68
2023/07/02 02:26:10;;;;;;;13.13;4.82;;;;;;;;;;5034031;28;20051;-68
2023/07/02 02:28:35;;;;;;;15.38;6.65;;;;;;;;;;5034134;28;20025;-68
2023/07/02 02:31:00;;;;;;;10.95;4.10;;;;;;;;;;5032660;28;20041;-68
2023/07/02 02:33:26;;;;;;;11.70;4.20;;;;;;;;;;5034614;28;20028;-67
2023/07/02 02:35:51;;;;;;;18.90;4.10;;;;;;;;;;5033733;28;20032;-68
2023/07/02 02:38:17;;;;;;;17.58;4.45;;;;;;;;;;5033600;28;20029;-68
2023/07/02 02:40:42;;;;;;;17.92;5.07;;;;;;;;;;5031441;28;20060;-68
2023/07/02 02:43:07;;;;;;;12.88;4.20;;;;;;;;;;5032144;28;20022;-67
2023/07/02 02:45:33;;;;;;;15.82;6.03;;;;;;;;;;5032472;28;20027;-68
2023/07/02 02:47:58;;;;;;;11.52;4.35;;;;;;;;;;5033631;28;20029;-67
2023/07/02 02:50:23;;;;;;;14.85;4.47;;;;;;;;;;5032580;28;20037;-68
2023/07/02 02:52:49;;;;;;;14.48;4.65;;;;;;;;;;5033625;28;20497;-68
2023/07/02 02:55:14;;;;;;;15.57;4.25;;;;;;;;;;5032992;28;20031;-67
2023/07/02 02:57:39;;;;;;;21.00;4.65;;;;;;;;;;5033531;28;20029;-68
2023/07/02 03:00:06;;;;;;;18.40;4.65;;;;;;;;;;5036656;28;20485;-67
2023/07/02 03:02:32;;;;;;;15.07;4.35;;;;;;;;;;5036547;28;20029;-68
2023/07/02 03:05:02;;;;;;;14.13;4.13;;;;;;;;;;5036920;28;20032;-68
2023/07/02 03:07:30;;;;;;;20.02;4.25;;;;;;;;;;5036813;28;20386;-68
2023/07/02 03:09:56;;;;;;;18.48;4.22;;;;;;;;;;5036537;28;20052;-68
2023/07/02 03:12:22;;;;;;;18.45;4.22;;;;;;;;;;5035382;28;20021;-68
2023/07/02 03:14:51;;;;;;;11.30;4.72;;;;;;;;;;5034501;28;20483;-67
2023/07/02 03:17:16;;;;;;;12.65;4.47;;;;;;;;;;5035871;28;20037;-67
2023/07/02 03:19:42;;;;;;;20.80;5.20;;;;;;;;;;5036160;28;20386;-67
2023/07/02 03:22:07;;;;;;;18.27;5.75;;;;;;;;;;5036918;28;20025;-68
2023/07/02 03:24:32;;;;;;;22.85;4.80;;;;;;;;;;5037582;28;20475;-69
2023/07/02 03:26:58;;;;;;;15.85;4.78;;;;;;;;;;5036624;28;20026;-68
2023/07/02 03:29:23;;;;;;;18.52;5.75;;;;;;;;;;5037154;28;20453;-69
2023/07/02 03:31:49;;;;;;;17.30;4.55;;;;;;;;;;5036898;28;20032;-68
2023/07/02 03:34:14;;;;;;;14.02;5.35;;;;;;;;;;5037443;28;20028;-69
2023/07/02 03:36:40;;;;;;;16.98;5.15;;;;;;;;;;5037317;28;20080;-69
2023/07/02 03:39:05;;;;;;;18.50;4.72;;;;;;;;;;5037332;28;20025;-68
2023/07/02 03:41:31;;;;;;;18.67;5.47;;;;;;;;;;5037218;28;20079;-68
2023/07/02 03:43:56;;;;;;;14.65;5.28;;;;;;;;;;5035830;28;20502;-69
2023/07/02 03:46:21;;;;;;;17.05;5.93;;;;;;;;;;5036569;28;20377;-68
2023/07/02 03:48:47;;;;;;;14.20;4.35;;;;;;;;;;5036960;28;20025;-68
2023/07/02 03:51:14;;;;;;;13.63;3.55;;;;;;;;;;5037718;28;20030;-68
2023/07/02 03:53:39;;;;;;;12.68;4.32;;;;;;;;;;5036206;28;20021;-69
2023/07/02 03:56:04;;;;;;;12.85;4.25;;;;;;;;;;5037334;28;20025;-69
2023/07/02 03:58:30;;;;;;;12.43;5.38;;;;;;;;;;5036585;28;20029;-69
2023/07/02 04:00:55;;;;;;;20.50;4.82;;;;;;;;;;5037320;28;20034;-69
2023/07/02 04:03:21;;;;;;;15.30;5.15;;;;;;;;;;5035274;28;20025;-69
2023/07/02 04:05:46;;;;;;;21.40;4.95;;;;;;;;;;5036961;28;20025;-69
2023/07/02 04:08:11;;;;;;;18.80;5.13;;;;;;;;;;5035119;28;20475;-69
2023/07/02 04:10:37;;;;;;;19.80;4.93;;;;;;;;;;5035652;28;20024;-69
2023/07/02 04:13:02;;;;;;;15.15;5.13;;;;;;;;;;5036035;28;20029;-69
2023/07/02 04:15:28;;;;;;;18.75;5.78;;;;;;;;;;5036558;28;20021;-69
2023/07/02 04:17:53;;;;;;;19.45;5.38;;;;;;;;;;5036085;28;20018;-69
2023/07/02 04:20:21;;;;;;;23.70;5.88;;;;;;;;;;5035638;28;20079;-69
2023/07/02 04:22:47;;;;;;;12.13;5.57;;;;;;;;;;5035765;28;20029;-69
2023/07/02 04:25:16;;;;;;;23.40;5.72;;;;;;;;;;5017727;28;20034;-69
2023/07/02 04:27:42;;;;;;;24.50;7.40;;;;;;;;;;5014781;28;20022;-69
2023/07/02 04:30:09;;;;;;;23.20;6.63;;;;;;;;;;5024815;28;20361;-68
2023/07/02 04:32:35;;;;;;;17.23;5.05;;;;;;;;;;5015877;28;20048;-69
2023/07/02 04:35:01;;;;;;;15.05;4.95;;;;;;;;;;5027404;28;20519;-69
2023/07/02 04:37:27;;;;;;;20.50;6.50;;;;;;;;;;5034846;28;20018;-69
2023/07/02 04:39:53;;;;;;;24.20;5.78;;;;;;;;;;5034220;28;20056;-69
2023/07/02 04:42:18;;;;;;;18.95;4.82;;;;;;;;;;5035280;28;20475;-69
2023/07/02 04:44:43;;;;;;;20.20;5.65;;;;;;;;;;5029957;28;20026;-69
2023/07/02 04:47:09;;;;;;;19.00;6.03;;;;;;;;;;5033794;28;20032;-69
2023/07/02 04:49:34;;;;;;;21.95;6.15;;;;;;;;;;5035460;28;20018;-69
2023/07/02 04:51:59;;;;;;;18.63;5.05;;;;;;;;;;5035101;28;20037;-69
2023/07/02 04:54:25;;;;;;;20.67;5.75;;;;;;;;;;5034929;28;20032;-69
2023/07/02 04:56:50;;;;;;;17.67;4.85;;;;;;;;;;5034712;28;20022;-69
2023/07/02 04:59:16;;;;;;;16.15;6.22;;;;;;;;;;5035178;28;20215;-69
2023/07/02 05:01:41;;;;;;;12.07;4.40;;;;;;;;;;5034588;28;20033;-69
2023/07/02 05:04:09;;;;;;;22.60;5.07;;;;;;;;;;5034704;28;20390;-68
2023/07/02 05:06:35;;;;;;;23.15;5.57;;;;;;;;;;5032915;28;20073;-68
2023/07/02 05:09:00;;;;;;;13.95;4.93;;;;;;;;;;5034408;28;20115;-69
2023/07/02 05:11:26;;;;;;;18.50;5.40;;;;;;;;;;5034576;28;20028;-68
2023/07/02 05:13:51;;;;;;;14.60;4.60;;;;;;;;;;5034683;28;20033;-68
2023/07/02 05:16:16;;;;;;;14.73;5.47;;;;;;;;;;5033874;28;20025;-68
2023/07/02 05:18:42;;;;;;;14.55;5.30;;;;;;;;;;5033720;28;20025;-69
2023/07/02 05:21:07;;;;;;;14.15;4.55;;;;;;;;;;5031583;28;20021;-69
2023/07/02 05:23:32;;;;;;;14.25;5.30;;;;;;;;;;5032795;28;20091;-68
2023/07/02 05:25:58;;;;;;;16.17;6.15;;;;;;;;;;5033711;28;20390;-68
2023/07/02 05:28:24;;;;;;;17.67;6.43;;;;;;;;;;5033435;28;20032;-69
2023/07/02 05:30:49;;;;;;;14.98;5.50;;;;;;;;;;5033572;28;20445;-68
2023/07/02 05:33:15;;;;;;;19.92;5.63;;;;;;;;;;5033312;28;20025;-69
2023/07/02 05:35:40;;;;;;;23.75;6.15;;;;;;;;;;5033196;28;20032;-68
2023/07/02 05:38:06;;;;;;;17.13;6.40;;;;;;;;;;5033067;28;20074;-68
2023/07/02 05:40:31;;;;;;;29.27;5.60;;;;;;;;;;5033196;28;20143;-68
2023/07/02 05:42:57;;;;;;;19.90;7.35;;;;;;;;;;5033973;28;20078;-68
2023/07/02 05:45:23;;;;;;;18.33;5.00;;;;;;;;;;5033238;28;20471;-68
2023/07/02 05:47:48;;;;;;;19.33;5.07;;;;;;;;;;5031928;28;20036;-68
2023/07/02 05:50:14;;;;;;;15.38;5.93;;;;;;;;;;5033083;28;20029;-68
2023/07/02 05:52:39;;;;;;;12.35;5.07;;;;;;;;;;5032507;28;20056;-68
2023/07/02 05:55:05;;;;;;;18.77;5.20;;;;;;;;;;5014718;28;20082;-68
2023/07/02 05:57:30;;;;;;;13.10;5.65;;;;;;;;;;5013032;28;20407;-68
2023/07/02 05:59:56;;;;;;;20.73;5.20;;;;;;;;;;5012927;28;20029;-68
2023/07/02 06:02:21;;;;;;;16.55;5.07;;;;;;;;;;5025589;28;20033;-68
2023/07/02 06:04:46;;;;;;;18.05;5.30;;;;;;;;;;5032753;28;20029;-68
2023/07/02 06:07:12;;;;;;;21.83;7.00;;;;;;;;;;5032746;28;20021;-68
2023/07/02 06:09:37;;;;;;;16.83;5.35;;;;;;;;;;5033363;28;20405;-68
2023/07/02 06:12:03;;;;;;;17.35;4.50;;;;;;;;;;5032751;28;20025;-68
2023/07/02 06:14:28;;;;;;;16.77;4.57;;;;;;;;;;5033209;28;20049;-68
2023/07/02 06:16:57;;;;;;;14.93;4.03;;;;;;;;;;5032421;28;20426;-68
2023/07/02 06:19:22;;;;;;;11.45;3.25;;;;;;;;;;5032137;28;20037;-68
2023/07/02 06:21:47;;;;;;;14.90;5.18;;;;;;;;;;5031732;28;20177;-68
2023/07/02 06:24:13;;;;;;;14.45;3.92;;;;;;;;;;5027161;28;20533;-68
2023/07/02 06:26:38;;;;;;;14.48;4.07;;;;;;;;;;5032929;28;20028;-68
2023/07/02 06:29:03;;;;;;;16.15;4.13;;;;;;;;;;5032236;28;20028;-68
2023/07/02 06:31:29;;;;;;;17.50;4.28;;;;;;;;;;5033003;28;20417;-68
2023/07/02 06:33:54;;;;;;;20.38;4.55;;;;;;;;;;5034480;28;20124;-68
2023/07/02 06:36:20;;;;;;;13.32;5.05;;;;;;;;;;5037246;28;20391;-68
2023/07/02 06:38:45;;;;;;;13.32;4.30;;;;;;;;;;5036977;28;20464;-68
2023/07/02 06:41:10;;;;;;;12.45;5.25;;;;;;;;;;5037013;28;20033;-68
2023/07/02 06:43:36;;;;;;;19.10;5.00;;;;;;;;;;5036016;28;20397;-68
2023/07/02 06:46:01;;;;;;;10.63;3.65;;;;;;;;;;5037233;28;20490;-68
2023/07/02 06:48:27;;;;;;;14.07;3.40;;;;;;;;;;5036289;28;20033;-68
2023/07/02 06:50:52;;;;;;;15.63;4.00;;;;;;;;;;5036383;28;20021;-68
2023/07/02 06:53:18;;;;;;;11.48;3.55;;;;;;;;;;5036632;28;20470;-68
2023/07/02 06:55:43;;;;;;;12.00;4.05;;;;;;;;;;5036659;28;20025;-68
2023/07/02 06:58:09;;;;;;;11.38;3.95;;;;;;;;;;5036149;28;20078;-68
2023/07/02 07:00:37;;;;;;;14.57;3.95;;;;;;;;;;5035594;28;20079;-68
2023/07/02 07:03:03;;;;;;;15.63;4.60;;;;;;;;;;5036308;28;20453;-68
2023/07/02 07:05:32;;;;;;;13.15;3.92;;;;;;;;;;5031325;28;20030;-67
2023/07/02 07:07:58;;;;;;;12.35;3.45;;;;;;;;;;5016559;28;20034;-67
2023/07/02 07:10:23;;;;;;;9.00;3.40;;;;;;;;;;5023788;28;20024;-67
2023/07/02 07:12:48;;;;;;;16.75;3.45;;;;;;;;;;5036519;28;20391;-67
2023/07/02 07:15:14;;;;;;;9.40;2.70;;;;;;;;;;5036596;28;20026;-67
2023/07/02 07:17:39;;;;;;;13.63;3.03;;;;;;;;;;5016367;28;20022;-67
2023/07/02 07:20:05;;;;;;;14.25;3.45;;;;;;;;;;5016577;28;20026;-67
2023/07/02 07:22:31;;;;;;;19.42;4.13;;;;;;;;;;5015584;28;20415;-67
2023/07/02 07:24:56;;;;;;;10.98;3.75;;;;;;;;;;5014855;28;20387;-67
2023/07/02 07:27:21;;;;;;;15.77;3.55;;;;;;;;;;5024097;28;20021;-67
2023/07/02 07:29:47;;;;;;;11.93;3.35;;;;;;;;;;5036377;28;20021;-68
2023/07/02 07:32:12;;;;;;;9.70;3.20;;;;;;;;;;5035264;28;20025;-68
2023/07/02 07:34:37;;;;;;;10.88;3.20;;;;;;;;;;5035832;28;20451;-68
2023/07/02 07:37:03;;;;;;;15.00;3.55;;;;;;;;;;5035412;28;20017;-68
2023/07/02 07:39:28;;;;;;;13.20;3.90;;;;;;;;;;5035934;28;20068;-68
2023/07/02 07:41:54;;;;;;;12.68;3.67;;;;;;;;;;5035249;28;20028;-69
2023/07/02 07:44:19;;;;;;;15.80;4.03;;;;;;;;;;5033658;28;20094;-68
2023/07/02 07:46:44;;;;;;;10.63;3.17;;;;;;;;;;5035275;28;20035;-68
2023/07/02 07:49:10;;;;;;;15.60;3.53;;;;;;;;;;5035066;28;20442;-68
2023/07/02 07:51:38;;;;;;;14.93;4.53;;;;;;;;;;5035266;28;20022;-68
2023/07/02 07:54:03;;;;;;;11.75;3.42;;;;;;;;;;5035027;28;20522;-68
2023/07/02 07:56:28;;;;;;;8.15;3.05;;;;;;;;;;5035463;28;20026;-68
2023/07/02 07:58:54;;;;;;;12.38;3.50;;;;;;;;;;5034888;28;20394;-68
2023/07/02 08:01:20;;;;;;;12.95;3.33;;;;;;;;;;5034793;28;20027;-68
2023/07/02 08:03:45;;;;;;;18.48;3.85;;;;;;;;;;5034916;28;20029;-68
2023/07/02 08:06:11;;;;;;;11.98;3.38;;;;;;;;;;5034685;28;20035;-68
2023/07/02 08:08:36;;;;;;;13.70;3.38;;;;;;;;;;5033951;28;20023;-68
2023/07/02 08:11:01;;;;;;;9.40;2.50;;;;;;;;;;5034710;28;20030;-67
2023/07/02 08:13:27;;;;;;;13.23;2.95;;;;;;;;;;5034717;28;20501;-67
2023/07/02 08:15:52;;;;;;;9.80;2.28;;;;;;;;;;5017139;28;20080;-68
2023/07/02 08:18:17;;;;;;;9.27;2.67;;;;;;;;;;5014555;28;20032;-68
2023/07/02 08:20:43;;;;;;;7.28;2.97;;;;;;;;;;5029700;28;20505;-68
2023/07/02 08:23:08;;;;;;;10.98;2.85;;;;;;;;;;5033160;28;20021;-67
2023/07/02 08:25:33;;;;;;;14.40;3.05;;;;;;;;;;5034337;28;20026;-68
2023/07/02 08:27:59;;;;;;;17.42;3.10;;;;;;;;;;5034586;28;20013;-67
2023/07/02 08:30:24;;;;;;;11.57;2.88;;;;;;;;;;5032876;28;20031;-67
2023/07/02 08:32:50;;;;;;;14.05;2.70;;;;;;;;;;5034369;28;20478;-68
2023/07/02 08:35:15;;;;;;;16.13;2.47;;;;;;;;;;5031175;28;20036;-68
2023/07/02 08:37:40;;;;;;;10.52;2.25;;;;;;;;;;5033325;28;20044;-67
2023/07/02 08:40:07;;;;;;;5.85;2.25;;;;;;;;;;5028460;28;20032;-67
2023/07/02 08:42:33;;;;;;;14.35;2.67;;;;;;;;;;5033002;28;20036;-67
2023/07/02 08:44:59;;;;;;;8.60;2.58;;;;;;;;;;5032920;28;20024;-68
2023/07/02 08:47:24;;;;;;;12.55;2.13;;;;;;;;;;5034042;28;20021;-68
2023/07/02 08:49:50;;;;;;;9.50;2.78;;;;;;;;;;5032223;28;20119;-67
2023/07/02 08:52:15;;;;;;;6.90;2.55;;;;;;;;;;5033789;28;20031;-68
2023/07/02 08:54:42;;;;;;;7.25;2.65;;;;;;;;;;5028331;28;20040;-68
2023/07/02 08:57:09;;;;;;;8.95;2.67;;;;;;;;;;5031244;28;20025;-68
2023/07/02 08:59:35;;;;;;;7.75;2.15;;;;;;;;;;5034056;28;20483;-68
2023/07/02 09:02:01;;;;;;;8.85;2.65;;;;;;;;;;5033777;28;20491;-68
2023/07/02 09:04:26;;;;;;;8.73;2.50;;;;;;;;;;5033222;28;20036;-68
2023/07/02 09:07:06;;;;;;;8.95;2.70;;;;;;;;;;5033826;28;20368;-67
2023/07/02 09:09:32;;;;;;;11.18;2.30;;;;;;;;;;5032653;28;20044;-68
2023/07/02 09:11:57;;;;;;;14.35;3.10;;;;;;;;;;5032748;28;20463;-69
2023/07/02 09:14:32;;;;;;;7.97;2.28;;;;;;;;;;5033535;28;20028;-68
2023/07/02 09:17:10;;;;;;;8.15;2.42;;;;;;;;;;5032797;28;20127;-69
2023/07/02 09:19:37;;;;;;;9.80;2.30;;;;;;;;;;5033189;28;20033;-68
2023/07/02 09:22:03;;;;;;;6.88;1.92;;;;;;;;;;5034162;28;20033;-68
2023/07/02 09:24:29;;;;;;;7.38;1.70;;;;;;;;;;5033432;28;20028;-68
2023/07/02 09:27:01;;;;;;;9.90;2.42;;;;;;;;;;5039497;28;20075;-68
2023/07/02 09:29:31;;;;;;;10.55;2.40;;;;;;;;;;5033429;28;20025;-67
2023/07/02 09:32:02;;;;;;;12.07;2.53;;;;;;;;;;5033168;28;20018;-68
2023/07/02 09:34:29;;;;;;;6.35;2.35;;;;;;;;;;5033530;28;20029;-68
2023/07/02 09:36:55;;;;;;;9.32;3.10;;;;;;;;;;5032998;28;20032;-68
2023/07/02 09:39:26;;;;;;;9.18;2.47;;;;;;;;;;5032179;28;20026;-68
2023/07/02 09:41:51;;;;;;;12.90;2.40;;;;;;;;;;5032038;28;20029;-68
2023/07/02 09:44:17;;;;;;;7.63;2.30;;;;;;;;;;5031888;28;20028;-68
2023/07/02 09:46:52;;;;;;;8.35;2.35;;;;;;;;;;5031778;28;20502;-68
2023/07/02 09:49:20;;;;;;;13.20;2.85;;;;;;;;;;5031902;28;20022;-68
2023/07/02 09:51:46;;;;;;;12.40;2.70;;;;;;;;;;5031025;28;20049;-68
2023/07/02 09:54:11;;;;;;;12.30;2.92;;;;;;;;;;5031547;28;20083;-69
2023/07/02 09:56:37;;;;;;;11.77;2.47;;;;;;;;;;5037512;28;20490;-70
2023/07/02 09:59:02;;;;;;;8.05;2.40;;;;;;;;;;5031698;28;20021;-69
2023/07/02 10:01:27;;;;;;;6.45;2.10;;;;;;;;;;5031722;28;20029;-70
2023/07/02 10:03:53;;;;;;;9.27;2.60;;;;;;;;;;5033032;28;20482;-70
2023/07/02 10:06:18;;;;;;;6.95;2.42;;;;;;;;;;5032580;28;20022;-70
2023/07/02 10:08:54;;;;;;;14.90;2.65;;;;;;;;;;5031751;28;20026;-70
2023/07/02 10:11:19;;;;;;;13.15;2.20;;;;;;;;;;5031402;28;20057;-70
2023/07/02 10:13:45;;;;;;;6.93;2.35;;;;;;;;;;5032699;28;20027;-70
2023/07/02 10:16:10;;;;;;;13.38;2.83;;;;;;;;;;5031218;28;20079;-70
2023/07/02 10:18:36;;;;;;;10.60;2.53;;;;;;;;;;5022624;28;74490;-71
2023/07/02 10:21:14;;;;;;;11.05;2.03;;;;;;;;;;5030246;28;20046;-71
2023/07/02 10:23:39;;;;;;;8.38;1.88;;;;;;;;;;5031536;28;20147;-70
2023/07/02 10:26:14;;;;;;;7.95;1.88;;;;;;;;;;5031580;28;20040;-70
2023/07/02 10:28:40;;;;;;;13.20;2.40;;;;;;;;;;5030965;28;20100;-71
2023/07/02 10:31:17;;;;;;;7.78;2.25;;;;;;;;;;5031114;28;20056;-71
2023/07/02 10:33:44;;;;;;;12.43;2.35;;;;;;;;;;5031611;28;20463;-71
2023/07/02 10:36:17;;;;;;;6.90;3.00;;;;;;;;;;5029239;28;20578;-70
2023/07/02 10:38:42;;;;;;;12.07;2.85;;;;;;;;;;5030716;28;20041;-71
2023/07/02 10:41:08;;;;;;;9.95;2.05;;;;;;;;;;5031925;28;20026;-71
2023/07/02 10:43:33;;;;;;;11.32;2.72;;;;;;;;;;5032743;28;20145;-70
2023/07/02 10:46:02;;;;;;;12.55;2.60;;;;;;;;;;5031554;28;20021;-70
2023/07/02 10:48:28;;;;;;;6.47;2.42;;;;;;;;;;5031003;28;20482;-70
2023/07/02 10:50:53;;;;;;;8.90;1.92;;;;;;;;;;5030031;28;20041;-71
2023/07/02 10:53:19;;;;;;;11.93;2.67;;;;;;;;;;5032597;28;20029;-70
2023/07/02 10:55:45;;;;;;;7.30;2.13;;;;;;;;;;5032089;28;20040;-70
2023/07/02 10:58:11;;;;;;;11.95;3.38;;;;;;;;;;5030902;28;20022;-70
2023/07/02 11:00:44;;;;;;;13.05;2.33;;;;;;;;;;5032126;28;20025;-71
2023/07/02 11:03:23;;;;;;;12.27;3.65;;;;;;;;;;5031123;28;20021;-70
2023/07/02 11:05:49;;;;;;;8.63;2.42;;;;;;;;;;5030966;28;20029;-70
2023/07/02 11:08:15;;;;;;;6.05;2.22;;;;;;;;;;5032936;28;20017;-70
2023/07/02 11:10:40;;;;;;;14.85;3.05;;;;;;;;;;5014460;28;20372;-70
2023/07/02 11:13:17;;;;;;;9.05;3.45;;;;;;;;;;5030780;28;20376;-71
2023/07/02 11:15:42;;;;;;;8.55;2.30;;;;;;;;;;5030927;28;20060;-71
2023/07/02 11:18:20;;;;;;;7.05;2.20;;;;;;;;;;5031085;28;20025;-70
2023/07/02 11:20:46;;;;;;;8.15;2.80;;;;;;;;;;5034717;28;20029;-71
2023/07/02 11:23:19;;;;;;;10.15;2.55;;;;;;;;;;5035533;28;20029;-70
2023/07/02 11:25:55;;;;;;;10.65;2.50;;;;;;;;;;5034454;28;20025;-68
2023/07/02 11:28:20;;;;;;;11.50;2.78;;;;;;;;;;5035731;28;20014;-68
2023/07/02 11:30:46;;;;;;;11.85;3.22;;;;;;;;;;5035503;28;20021;-68
2023/07/02 11:33:11;;;;;;;10.32;2.50;;;;;;;;;;5035547;28;20034;-68
2023/07/02 11:35:36;;;;;;;14.18;2.60;;;;;;;;;;5034526;28;20033;-68
2023/07/02 11:38:02;;;;;;;12.48;2.45;;;;;;;;;;5034182;28;20040;-68
2023/07/02 11:40:27;;;;;;;9.85;2.58;;;;;;;;;;5035238;28;20017;-68
2023/07/02 11:42:52;;;;;;;7.93;2.20;;;;;;;;;;5035318;28;20021;-68
2023/07/02 11:45:18;;;;;;;8.32;2.20;;;;;;;;;;5033413;28;20021;-68
2023/07/02 11:47:43;;;;;;;7.30;1.85;;;;;;;;;;5035003;28;20437;-67
2023/07/02 11:50:09;;;;;;;10.80;2.20;;;;;;;;;;5035106;28;20022;-68
2023/07/02 11:52:35;;;;;;;4.88;2.10;;;;;;;;;;5035318;28;20056;-68
2023/07/02 11:55:00;;;;;;;10.70;2.25;;;;;;;;;;5035386;28;20025;-67
2023/07/02 11:57:25;;;;;;;7.10;1.98;;;;;;;;;;5035192;28;20075;-68
2023/07/02 11:59:52;;;;;;;11.05;2.45;;;;;;;;;;5035331;28;20505;-68
2023/07/02 12:02:17;;;;;;;9.00;2.08;;;;;;;;;;5035298;28;20021;-68
2023/07/02 12:04:43;;;;;;;6.38;2.22;;;;;;;;;;5035137;28;20469;-67
2023/07/02 12:07:08;;;;;;;7.45;2.22;;;;;;;;;;5035073;28;20024;-68
2023/07/02 12:09:34;;;;;;;6.30;1.92;;;;;;;;;;5033976;28;20030;-68
2023/07/02 12:11:59;;;;;;;10.00;2.80;;;;;;;;;;5035005;28;20028;-68
2023/07/02 12:14:24;;;;;;;9.43;2.22;;;;;;;;;;5034332;28;20030;-68
2023/07/02 12:16:50;;;;;;;12.73;2.03;;;;;;;;;;5034714;28;20493;-68
2023/07/02 12:19:15;;;;;;;9.43;2.30;;;;;;;;;;5035222;28;20047;-68
2023/07/02 12:21:41;;;;;;;6.60;2.00;;;;;;;;;;5034558;28;20025;-67
2023/07/02 12:24:09;;;;;;;5.78;1.92;;;;;;;;;;5034833;28;20498;-68
2023/07/02 12:26:35;;;;;;;9.52;2.35;;;;;;;;;;5033830;28;20029;-67
2023/07/02 12:29:00;;;;;;;10.20;2.90;;;;;;;;;;5034932;28;20395;-67
2023/07/02 12:31:26;;;;;;;8.27;2.10;;;;;;;;;;5033225;28;20025;-68
2023/07/02 12:33:51;;;;;;;8.48;2.42;;;;;;;;;;5034630;28;20025;-67
2023/07/02 12:36:17;;;;;;;8.85;2.50;;;;;;;;;;5035711;28;20369;-68
2023/07/02 12:38:42;;;;;;;9.75;2.13;;;;;;;;;;5034119;28;20022;-67
2023/07/02 12:41:07;;;;;;;9.43;2.65;;;;;;;;;;5033311;28;20025;-68
2023/07/02 12:43:33;;;;;;;4.13;1.83;;;;;;;;;;5034443;28;20017;-68
2023/07/02 12:45:58;;;;;;;7.10;3.67;;;;;;;;;;5034899;28;20382;-68
2023/07/02 12:48:23;;;;;;;7.65;2.03;;;;;;;;;;5034196;28;20017;-68
2023/07/02 12:50:56;;;;;;;12.25;2.58;;;;;;;;;;5034664;28;20036;-68
2023/07/02 12:53:22;;;;;;;10.77;2.28;;;;;;;;;;5033913;28;20546;-68
2023/07/02 12:55:47;;;;;;;9.27;2.65;;;;;;;;;;5034213;28;20021;-68
2023/07/02 12:58:13;;;;;;;10.80;2.65;;;;;;;;;;5033948;28;20076;-68
2023/07/02 13:00:38;;;;;;;10.75;2.60;;;;;;;;;;5033961;28;20071;-68
2023/07/02 13:03:03;;;;;;;11.30;2.40;;;;;;;;;;5034327;28;20036;-68
2023/07/02 13:05:29;;;;;;;11.60;4.10;;;;;;;;;;5033844;28;20394;-68
2023/07/02 13:07:54;;;;;;;10.77;2.58;;;;;;;;;;5032385;28;20024;-68
2023/07/02 13:10:19;;;;;;;14.98;2.60;;;;;;;;;;5033826;28;20022;-67
2023/07/02 13:12:45;;;;;;;8.60;1.98;;;;;;;;;;5033824;28;20025;-68
2023/07/02 13:15:12;;;;;;;17.45;2.28;;;;;;;;;;5032374;28;20017;-68
2023/07/02 13:17:37;;;;;;;9.18;2.08;;;;;;;;;;5033444;28;20049;-68
2023/07/02 13:20:04;;;;;;;8.15;1.98;;;;;;;;;;5033520;28;20483;-68
2023/07/02 13:22:29;;;;;;;9.93;2.35;;;;;;;;;;5033391;28;20028;-68
2023/07/02 13:24:54;;;;;;;8.15;2.20;;;;;;;;;;5033340;28;20025;-68
2023/07/02 13:27:20;;;;;;;10.18;2.40;;;;;;;;;;5033455;28;20022;-68
2023/07/02 13:29:45;;;;;;;12.73;2.55;;;;;;;;;;5033480;28;20418;-68
2023/07/02 13:32:11;;;;;;;12.85;3.22;;;;;;;;;;5032349;28;20025;-68
2023/07/02 13:34:36;;;;;;;13.23;3.00;;;;;;;;;;5033617;28;20475;-68
2023/07/02 13:37:02;;;;;;;8.10;2.03;;;;;;;;;;5033050;28;20104;-68
2023/07/02 13:39:28;;;;;;;10.88;3.28;;;;;;;;;;5033239;28;20104;-68
2023/07/02 13:41:54;;;;;;;14.27;2.80;;;;;;;;;;5031879;28;20108;-68
2023/07/02 13:44:19;;;;;;;10.95;2.78;;;;;;;;;;5033544;28;20017;-67
2023/07/02 13:46:45;;;;;;;13.55;3.30;;;;;;;;;;5033051;28;20025;-68
2023/07/02 13:49:10;;;;;;;15.85;2.92;;;;;;;;;;5039315;23;20044;-73
2023/07/02 13:51:36;;;;;;;18.55;3.35;;;;;;;;;;4995634;28;20034;-73
2023/07/02 13:54:01;;;;;;;12.55;2.80;;;;;;;;;;4992450;28;20018;-72
2023/07/02 13:56:26;;;;;;;16.65;3.28;;;;;;;;;;4993535;28;20026;-73
2023/07/02 13:58:55;;;;;;;12.55;3.40;;;;;;;;;;5008195;28;20026;-73
2023/07/02 14:01:20;;;;;;;9.80;2.70;;;;;;;;;;4993495;28;20041;-73
2023/07/02 14:03:45;;;;;;;12.75;3.55;;;;;;;;;;4993499;28;20472;-73
2023/07/02 14:06:11;;;;;;;12.70;2.85;;;;;;;;;;4993290;28;20026;-73
2023/07/02 14:08:36;;;;;;;7.15;2.83;;;;;;;;;;4992756;28;20023;-73
2023/07/02 14:11:01;;;;;;;12.63;3.50;;;;;;;;;;4993152;28;20391;-73
2023/07/02 14:13:27;;;;;;;10.90;3.00;;;;;;;;;;4992364;28;20034;-73
2023/07/02 14:15:52;;;;;;;12.32;3.53;;;;;;;;;;4993230;28;20422;-73
2023/07/02 14:18:18;;;;;;;14.05;3.72;;;;;;;;;;4993093;28;20037;-73
2023/07/02 14:20:43;;;;;;;13.70;5.25;;;;;;;;;;4993508;28;20438;-73
2023/07/02 14:23:09;;;;;;;13.38;4.18;;;;;;;;;;4992191;28;20037;-73
2023/07/02 14:25:34;;;;;;;9.52;3.70;;;;;;;;;;4991805;28;20077;-73
2023/07/02 14:27:59;;;;;;;6.68;2.85;;;;;;;;;;4993183;28;20022;-73